sensor_id;sensor_type;location;lat;lon;timestamp;P1;durP1;ratioP1;P2;durP2;ratioP2
70929;SDS011;58588;48.102;19.682;2023-09-30T00:02:32;13.27;;;6.55;;
70929;SDS011;58588;48.102;19.682;2023-09-30T00:05:34;13.45;;;6.10;;
70929;SDS011;58588;48.102;19.682;2023-09-30T00:08:36;13.25;;;5.72;;
70929;SDS011;58588;48.102;19.682;2023-09-30T00:11:39;14.33;;;5.47;;
70929;SDS011;58588;48.102;19.682;2023-09-30T00:14:41;11.13;;;6.00;;
70929;SDS011;58588;48.102;19.682;2023-09-30T00:17:44;11.10;;;5.88;;
70929;SDS011;58588;48.102;19.682;2023-09-30T00:20:46;10.75;;;5.68;;
70929;SDS011;58588;48.102;19.682;2023-09-30T00:23:48;14.85;;;6.15;;
70929;SDS011;58588;48.102;19.682;2023-09-30T00:26:50;12.80;;;6.87;;
70929;SDS011;58588;48.102;19.682;2023-09-30T00:29:52;19.27;;;10.73;;
70929;SDS011;58588;48.102;19.682;2023-09-30T00:32:56;20.90;;;11.15;;
70929;SDS011;58588;48.102;19.682;2023-09-30T00:35:58;18.02;;;11.18;;
70929;SDS011;58588;48.102;19.682;2023-09-30T00:39:00;14.65;;;6.95;;
70929;SDS011;58588;48.102;19.682;2023-09-30T00:42:02;11.57;;;5.87;;
70929;SDS011;58588;48.102;19.682;2023-09-30T00:45:05;14.13;;;6.70;;
70929;SDS011;58588;48.102;19.682;2023-09-30T00:48:11;15.70;;;7.07;;
70929;SDS011;58588;48.102;19.682;2023-09-30T00:51:13;13.43;;;6.40;;
70929;SDS011;58588;48.102;19.682;2023-09-30T00:54:15;13.15;;;7.05;;
70929;SDS011;58588;48.102;19.682;2023-09-30T00:57:18;14.07;;;6.50;;
70929;SDS011;58588;48.102;19.682;2023-09-30T01:00:22;13.50;;;5.72;;
70929;SDS011;58588;48.102;19.682;2023-09-30T01:03:27;10.65;;;5.55;;
70929;SDS011;58588;48.102;19.682;2023-09-30T01:06:29;10.95;;;5.82;;
70929;SDS011;58588;48.102;19.682;2023-09-30T01:09:31;10.63;;;5.68;;
70929;SDS011;58588;48.102;19.682;2023-09-30T01:12:34;12.73;;;5.87;;
70929;SDS011;58588;48.102;19.682;2023-09-30T01:15:35;12.52;;;6.50;;
70929;SDS011;58588;48.102;19.682;2023-09-30T01:18:39;12.45;;;6.55;;
70929;SDS011;58588;48.102;19.682;2023-09-30T01:21:44;13.65;;;6.25;;
70929;SDS011;58588;48.102;19.682;2023-09-30T01:24:48;11.75;;;5.88;;
70929;SDS011;58588;48.102;19.682;2023-09-30T01:27:50;13.70;;;6.30;;
70929;SDS011;58588;48.102;19.682;2023-09-30T01:30:52;11.07;;;5.35;;
70929;SDS011;58588;48.102;19.682;2023-09-30T01:33:54;9.95;;;5.25;;
70929;SDS011;58588;48.102;19.682;2023-09-30T01:36:57;10.05;;;5.20;;
70929;SDS011;58588;48.102;19.682;2023-09-30T01:39:59;10.93;;;5.28;;
70929;SDS011;58588;48.102;19.682;2023-09-30T01:43:01;10.83;;;5.07;;
70929;SDS011;58588;48.102;19.682;2023-09-30T01:46:04;9.10;;;4.75;;
70929;SDS011;58588;48.102;19.682;2023-09-30T01:49:06;11.13;;;5.65;;
70929;SDS011;58588;48.102;19.682;2023-09-30T01:52:09;11.30;;;5.55;;
70929;SDS011;58588;48.102;19.682;2023-09-30T01:55:11;9.32;;;4.72;;
70929;SDS011;58588;48.102;19.682;2023-09-30T01:58:13;10.50;;;5.20;;
70929;SDS011;58588;48.102;19.682;2023-09-30T02:01:15;11.85;;;4.82;;
70929;SDS011;58588;48.102;19.682;2023-09-30T02:04:17;11.13;;;5.50;;
70929;SDS011;58588;48.102;19.682;2023-09-30T02:07:20;11.73;;;5.50;;
70929;SDS011;58588;48.102;19.682;2023-09-30T02:10:22;11.52;;;5.03;;
70929;SDS011;58588;48.102;19.682;2023-09-30T02:13:24;11.17;;;5.80;;
70929;SDS011;58588;48.102;19.682;2023-09-30T02:16:26;9.55;;;4.97;;
70929;SDS011;58588;48.102;19.682;2023-09-30T02:19:28;10.63;;;5.18;;
70929;SDS011;58588;48.102;19.682;2023-09-30T02:22:33;10.75;;;5.13;;
70929;SDS011;58588;48.102;19.682;2023-09-30T02:25:35;12.40;;;5.15;;
70929;SDS011;58588;48.102;19.682;2023-09-30T02:28:37;11.57;;;5.20;;
70929;SDS011;58588;48.102;19.682;2023-09-30T02:31:39;14.65;;;5.63;;
70929;SDS011;58588;48.102;19.682;2023-09-30T02:34:42;10.90;;;4.95;;
70929;SDS011;58588;48.102;19.682;2023-09-30T02:37:46;10.70;;;5.18;;
70929;SDS011;58588;48.102;19.682;2023-09-30T02:40:48;10.43;;;5.30;;
70929;SDS011;58588;48.102;19.682;2023-09-30T02:43:51;10.57;;;5.10;;
70929;SDS011;58588;48.102;19.682;2023-09-30T02:46:53;10.85;;;4.65;;
70929;SDS011;58588;48.102;19.682;2023-09-30T02:49:56;11.38;;;4.95;;
70929;SDS011;58588;48.102;19.682;2023-09-30T02:53:00;9.93;;;4.47;;
70929;SDS011;58588;48.102;19.682;2023-09-30T02:56:02;11.15;;;5.07;;
70929;SDS011;58588;48.102;19.682;2023-09-30T02:59:04;10.87;;;5.43;;
70929;SDS011;58588;48.102;19.682;2023-09-30T03:02:07;13.40;;;5.15;;
70929;SDS011;58588;48.102;19.682;2023-09-30T03:05:09;10.65;;;5.15;;
70929;SDS011;58588;48.102;19.682;2023-09-30T03:08:14;11.27;;;5.50;;
70929;SDS011;58588;48.102;19.682;2023-09-30T03:11:16;10.27;;;5.20;;
70929;SDS011;58588;48.102;19.682;2023-09-30T03:14:20;12.00;;;5.43;;
70929;SDS011;58588;48.102;19.682;2023-09-30T03:17:21;11.23;;;5.47;;
70929;SDS011;58588;48.102;19.682;2023-09-30T03:20:25;10.90;;;5.05;;
70929;SDS011;58588;48.102;19.682;2023-09-30T03:23:28;11.48;;;5.05;;
70929;SDS011;58588;48.102;19.682;2023-09-30T03:26:31;10.80;;;5.45;;
70929;SDS011;58588;48.102;19.682;2023-09-30T03:29:35;10.57;;;5.23;;
70929;SDS011;58588;48.102;19.682;2023-09-30T03:32:38;11.02;;;4.80;;
70929;SDS011;58588;48.102;19.682;2023-09-30T03:35:40;11.63;;;5.00;;
70929;SDS011;58588;48.102;19.682;2023-09-30T03:38:43;11.15;;;5.47;;
70929;SDS011;58588;48.102;19.682;2023-09-30T03:41:45;11.05;;;5.45;;
70929;SDS011;58588;48.102;19.682;2023-09-30T03:44:47;11.77;;;5.63;;
70929;SDS011;58588;48.102;19.682;2023-09-30T03:47:49;10.63;;;5.28;;
70929;SDS011;58588;48.102;19.682;2023-09-30T03:50:52;11.70;;;5.38;;
70929;SDS011;58588;48.102;19.682;2023-09-30T03:53:55;10.18;;;4.90;;
70929;SDS011;58588;48.102;19.682;2023-09-30T03:56:57;10.32;;;4.90;;
70929;SDS011;58588;48.102;19.682;2023-09-30T04:00:00;9.63;;;4.80;;
70929;SDS011;58588;48.102;19.682;2023-09-30T04:03:06;9.85;;;4.60;;
70929;SDS011;58588;48.102;19.682;2023-09-30T04:06:08;11.40;;;5.05;;
70929;SDS011;58588;48.102;19.682;2023-09-30T04:09:11;11.43;;;4.90;;
70929;SDS011;58588;48.102;19.682;2023-09-30T04:12:13;11.32;;;5.35;;
70929;SDS011;58588;48.102;19.682;2023-09-30T04:15:15;11.03;;;5.50;;
70929;SDS011;58588;48.102;19.682;2023-09-30T04:18:17;11.45;;;4.85;;
70929;SDS011;58588;48.102;19.682;2023-09-30T04:21:20;12.63;;;5.07;;
70929;SDS011;58588;48.102;19.682;2023-09-30T04:24:24;11.25;;;5.00;;
70929;SDS011;58588;48.102;19.682;2023-09-30T04:27:26;9.30;;;4.88;;
70929;SDS011;58588;48.102;19.682;2023-09-30T04:30:28;11.27;;;4.70;;
70929;SDS011;58588;48.102;19.682;2023-09-30T04:33:32;12.07;;;5.15;;
70929;SDS011;58588;48.102;19.682;2023-09-30T04:36:35;11.10;;;5.40;;
70929;SDS011;58588;48.102;19.682;2023-09-30T04:39:39;10.52;;;5.38;;
70929;SDS011;58588;48.102;19.682;2023-09-30T04:42:41;9.85;;;5.30;;
70929;SDS011;58588;48.102;19.682;2023-09-30T04:45:44;10.37;;;5.07;;
70929;SDS011;58588;48.102;19.682;2023-09-30T04:48:47;11.75;;;5.13;;
70929;SDS011;58588;48.102;19.682;2023-09-30T04:51:48;9.50;;;4.80;;
70929;SDS011;58588;48.102;19.682;2023-09-30T04:54:52;10.73;;;5.13;;
70929;SDS011;58588;48.102;19.682;2023-09-30T04:57:54;10.10;;;4.78;;
70929;SDS011;58588;48.102;19.682;2023-09-30T05:01:02;10.87;;;5.43;;
70929;SDS011;58588;48.102;19.682;2023-09-30T05:04:08;12.70;;;6.05;;
70929;SDS011;58588;48.102;19.682;2023-09-30T05:07:10;13.93;;;5.80;;
70929;SDS011;58588;48.102;19.682;2023-09-30T05:10:14;11.50;;;6.15;;
70929;SDS011;58588;48.102;19.682;2023-09-30T05:13:17;11.63;;;5.82;;
70929;SDS011;58588;48.102;19.682;2023-09-30T05:16:19;10.70;;;5.70;;
70929;SDS011;58588;48.102;19.682;2023-09-30T05:19:21;15.43;;;5.40;;
70929;SDS011;58588;48.102;19.682;2023-09-30T05:22:23;12.48;;;6.28;;
70929;SDS011;58588;48.102;19.682;2023-09-30T05:25:27;10.77;;;5.47;;
70929;SDS011;58588;48.102;19.682;2023-09-30T05:28:28;10.55;;;5.50;;
70929;SDS011;58588;48.102;19.682;2023-09-30T05:31:31;11.20;;;5.53;;
70929;SDS011;58588;48.102;19.682;2023-09-30T05:34:33;10.07;;;5.47;;
70929;SDS011;58588;48.102;19.682;2023-09-30T05:37:35;12.57;;;5.28;;
70929;SDS011;58588;48.102;19.682;2023-09-30T05:40:39;10.93;;;5.55;;
70929;SDS011;58588;48.102;19.682;2023-09-30T05:43:42;9.82;;;5.28;;
70929;SDS011;58588;48.102;19.682;2023-09-30T05:46:43;16.57;;;6.00;;
70929;SDS011;58588;48.102;19.682;2023-09-30T05:49:46;11.00;;;5.75;;
70929;SDS011;58588;48.102;19.682;2023-09-30T05:52:48;12.18;;;5.72;;
70929;SDS011;58588;48.102;19.682;2023-09-30T05:55:52;11.57;;;6.45;;
70929;SDS011;58588;48.102;19.682;2023-09-30T05:58:54;12.95;;;6.43;;
70929;SDS011;58588;48.102;19.682;2023-09-30T06:01:56;10.13;;;5.80;;
70929;SDS011;58588;48.102;19.682;2023-09-30T06:04:58;11.23;;;6.07;;
70929;SDS011;58588;48.102;19.682;2023-09-30T06:08:01;11.52;;;6.43;;
70929;SDS011;58588;48.102;19.682;2023-09-30T06:11:17;14.43;;;6.35;;
70929;SDS011;58588;48.102;19.682;2023-09-30T06:14:19;11.85;;;6.68;;
70929;SDS011;58588;48.102;19.682;2023-09-30T06:17:22;13.93;;;6.97;;
70929;SDS011;58588;48.102;19.682;2023-09-30T06:20:26;11.95;;;6.97;;
70929;SDS011;58588;48.102;19.682;2023-09-30T06:23:30;12.48;;;7.00;;
70929;SDS011;58588;48.102;19.682;2023-09-30T06:26:34;11.82;;;7.07;;
70929;SDS011;58588;48.102;19.682;2023-09-30T06:29:36;12.70;;;7.18;;
70929;SDS011;58588;48.102;19.682;2023-09-30T06:32:38;14.53;;;6.83;;
70929;SDS011;58588;48.102;19.682;2023-09-30T06:35:40;13.65;;;7.10;;
70929;SDS011;58588;48.102;19.682;2023-09-30T06:38:50;12.60;;;7.50;;
70929;SDS011;58588;48.102;19.682;2023-09-30T06:41:53;13.27;;;7.38;;
70929;SDS011;58588;48.102;19.682;2023-09-30T06:44:55;11.68;;;6.80;;
70929;SDS011;58588;48.102;19.682;2023-09-30T06:47:57;13.50;;;6.90;;
70929;SDS011;58588;48.102;19.682;2023-09-30T06:50:59;10.63;;;6.47;;
70929;SDS011;58588;48.102;19.682;2023-09-30T06:54:04;12.15;;;6.43;;
70929;SDS011;58588;48.102;19.682;2023-09-30T06:57:08;12.65;;;6.43;;
70929;SDS011;58588;48.102;19.682;2023-09-30T07:00:11;12.15;;;6.47;;
70929;SDS011;58588;48.102;19.682;2023-09-30T07:03:14;16.63;;;6.70;;
70929;SDS011;58588;48.102;19.682;2023-09-30T07:06:21;12.25;;;6.32;;
70929;SDS011;58588;48.102;19.682;2023-09-30T07:09:24;12.07;;;6.88;;
70929;SDS011;58588;48.102;19.682;2023-09-30T07:12:28;10.65;;;6.30;;
70929;SDS011;58588;48.102;19.682;2023-09-30T07:15:31;13.48;;;6.35;;
70929;SDS011;58588;48.102;19.682;2023-09-30T07:18:33;12.13;;;7.07;;
70929;SDS011;58588;48.102;19.682;2023-09-30T07:21:35;13.55;;;7.40;;
70929;SDS011;58588;48.102;19.682;2023-09-30T07:24:37;11.80;;;6.85;;
70929;SDS011;58588;48.102;19.682;2023-09-30T07:27:41;12.50;;;6.78;;
70929;SDS011;58588;48.102;19.682;2023-09-30T07:30:45;11.27;;;6.55;;
70929;SDS011;58588;48.102;19.682;2023-09-30T07:33:46;10.70;;;6.20;;
70929;SDS011;58588;48.102;19.682;2023-09-30T07:36:48;11.82;;;6.70;;
70929;SDS011;58588;48.102;19.682;2023-09-30T07:39:50;11.15;;;5.97;;
70929;SDS011;58588;48.102;19.682;2023-09-30T07:42:53;12.93;;;5.88;;
70929;SDS011;58588;48.102;19.682;2023-09-30T07:45:55;11.48;;;6.00;;
70929;SDS011;58588;48.102;19.682;2023-09-30T07:48:57;10.50;;;5.60;;
70929;SDS011;58588;48.102;19.682;2023-09-30T07:52:00;10.90;;;6.07;;
70929;SDS011;58588;48.102;19.682;2023-09-30T07:55:04;11.07;;;5.85;;
70929;SDS011;58588;48.102;19.682;2023-09-30T07:58:07;10.60;;;5.97;;
70929;SDS011;58588;48.102;19.682;2023-09-30T08:01:09;13.10;;;6.68;;
70929;SDS011;58588;48.102;19.682;2023-09-30T08:04:11;11.80;;;6.63;;
70929;SDS011;58588;48.102;19.682;2023-09-30T08:07:13;13.98;;;6.88;;
70929;SDS011;58588;48.102;19.682;2023-09-30T08:10:15;13.80;;;7.20;;
70929;SDS011;58588;48.102;19.682;2023-09-30T08:13:18;12.40;;;6.72;;
70929;SDS011;58588;48.102;19.682;2023-09-30T08:16:20;14.27;;;7.28;;
70929;SDS011;58588;48.102;19.682;2023-09-30T08:19:22;13.73;;;7.37;;
70929;SDS011;58588;48.102;19.682;2023-09-30T08:22:24;13.85;;;7.47;;
70929;SDS011;58588;48.102;19.682;2023-09-30T08:25:28;13.95;;;7.20;;
70929;SDS011;58588;48.102;19.682;2023-09-30T08:28:31;12.77;;;7.40;;
70929;SDS011;58588;48.102;19.682;2023-09-30T08:31:33;13.85;;;7.47;;
70929;SDS011;58588;48.102;19.682;2023-09-30T08:34:35;12.03;;;7.07;;
70929;SDS011;58588;48.102;19.682;2023-09-30T08:37:37;11.00;;;6.22;;
70929;SDS011;58588;48.102;19.682;2023-09-30T08:40:39;11.38;;;6.80;;
70929;SDS011;58588;48.102;19.682;2023-09-30T08:43:43;11.73;;;6.03;;
70929;SDS011;58588;48.102;19.682;2023-09-30T08:46:46;12.55;;;5.93;;
70929;SDS011;58588;48.102;19.682;2023-09-30T08:49:48;9.53;;;5.43;;
70929;SDS011;58588;48.102;19.682;2023-09-30T08:52:57;12.93;;;5.78;;
70929;SDS011;58588;48.102;19.682;2023-09-30T08:55:58;10.98;;;5.57;;
70929;SDS011;58588;48.102;19.682;2023-09-30T08:59:05;9.00;;;5.13;;
70929;SDS011;58588;48.102;19.682;2023-09-30T09:02:08;10.00;;;4.97;;
70929;SDS011;58588;48.102;19.682;2023-09-30T09:05:11;9.73;;;5.23;;
70929;SDS011;58588;48.102;19.682;2023-09-30T09:08:13;9.48;;;5.18;;
70929;SDS011;58588;48.102;19.682;2023-09-30T09:11:14;9.95;;;5.40;;
70929;SDS011;58588;48.102;19.682;2023-09-30T09:14:18;11.95;;;5.50;;
70929;SDS011;58588;48.102;19.682;2023-09-30T09:17:21;11.07;;;5.28;;
70929;SDS011;58588;48.102;19.682;2023-09-30T09:20:23;11.60;;;5.43;;
70929;SDS011;58588;48.102;19.682;2023-09-30T09:23:26;12.10;;;5.50;;
70929;SDS011;58588;48.102;19.682;2023-09-30T09:26:35;10.10;;;5.30;;
70929;SDS011;58588;48.102;19.682;2023-09-30T09:29:39;9.70;;;5.18;;
70929;SDS011;58588;48.102;19.682;2023-09-30T09:32:52;10.18;;;5.35;;
70929;SDS011;58588;48.102;19.682;2023-09-30T09:35:55;9.40;;;4.80;;
70929;SDS011;58588;48.102;19.682;2023-09-30T09:38:57;10.05;;;5.00;;
70929;SDS011;58588;48.102;19.682;2023-09-30T09:41:59;8.82;;;4.75;;
70929;SDS011;58588;48.102;19.682;2023-09-30T09:45:03;10.55;;;4.90;;
70929;SDS011;58588;48.102;19.682;2023-09-30T09:48:06;12.20;;;4.60;;
70929;SDS011;58588;48.102;19.682;2023-09-30T09:51:09;8.87;;;5.07;;
70929;SDS011;58588;48.102;19.682;2023-09-30T09:54:13;8.48;;;4.55;;
70929;SDS011;58588;48.102;19.682;2023-09-30T09:57:16;9.63;;;4.75;;
70929;SDS011;58588;48.102;19.682;2023-09-30T10:00:21;10.73;;;4.70;;
70929;SDS011;58588;48.102;19.682;2023-09-30T10:03:24;10.77;;;5.03;;
70929;SDS011;58588;48.102;19.682;2023-09-30T10:06:27;8.93;;;4.57;;
70929;SDS011;58588;48.102;19.682;2023-09-30T10:09:29;8.90;;;4.63;;
70929;SDS011;58588;48.102;19.682;2023-09-30T10:12:35;8.63;;;4.70;;
70929;SDS011;58588;48.102;19.682;2023-09-30T10:15:40;9.57;;;4.55;;
70929;SDS011;58588;48.102;19.682;2023-09-30T10:22:20;10.23;;;4.63;;
70929;SDS011;58588;48.102;19.682;2023-09-30T10:25:33;12.00;;;5.10;;
70929;SDS011;58588;48.102;19.682;2023-09-30T10:28:37;10.65;;;5.15;;
70929;SDS011;58588;48.102;19.682;2023-09-30T10:31:53;9.73;;;5.00;;
70929;SDS011;58588;48.102;19.682;2023-09-30T10:34:54;10.13;;;5.22;;
70929;SDS011;58588;48.102;19.682;2023-09-30T10:41:50;13.18;;;5.15;;
70929;SDS011;58588;48.102;19.682;2023-09-30T10:44:52;10.35;;;4.55;;
70929;SDS011;58588;48.102;19.682;2023-09-30T10:47:55;9.73;;;4.38;;
70929;SDS011;58588;48.102;19.682;2023-09-30T10:50:57;9.95;;;4.78;;
70929;SDS011;58588;48.102;19.682;2023-09-30T10:54:00;13.03;;;4.57;;
70929;SDS011;58588;48.102;19.682;2023-09-30T10:57:06;11.32;;;4.75;;
70929;SDS011;58588;48.102;19.682;2023-09-30T11:00:11;8.55;;;4.45;;
70929;SDS011;58588;48.102;19.682;2023-09-30T11:03:30;9.65;;;4.47;;
70929;SDS011;58588;48.102;19.682;2023-09-30T11:06:39;8.93;;;4.15;;
70929;SDS011;58588;48.102;19.682;2023-09-30T11:09:44;8.40;;;4.23;;
70929;SDS011;58588;48.102;19.682;2023-09-30T11:12:53;11.00;;;4.97;;
70929;SDS011;58588;48.102;19.682;2023-09-30T11:16:02;8.07;;;4.00;;
70929;SDS011;58588;48.102;19.682;2023-09-30T11:19:07;8.10;;;4.00;;
70929;SDS011;58588;48.102;19.682;2023-09-30T11:22:09;8.13;;;3.97;;
70929;SDS011;58588;48.102;19.682;2023-09-30T11:25:15;8.53;;;4.20;;
70929;SDS011;58588;48.102;19.682;2023-09-30T11:28:18;9.15;;;4.05;;
70929;SDS011;58588;48.102;19.682;2023-09-30T11:31:21;14.70;;;6.10;;
70929;SDS011;58588;48.102;19.682;2023-09-30T11:34:32;12.07;;;5.10;;
70929;SDS011;58588;48.102;19.682;2023-09-30T11:37:36;12.27;;;4.40;;
70929;SDS011;58588;48.102;19.682;2023-09-30T11:40:38;10.83;;;4.30;;
70929;SDS011;58588;48.102;19.682;2023-09-30T11:43:45;8.70;;;4.10;;
70929;SDS011;58588;48.102;19.682;2023-09-30T11:47:01;10.48;;;4.32;;
70929;SDS011;58588;48.102;19.682;2023-09-30T11:50:06;9.82;;;4.53;;
70929;SDS011;58588;48.102;19.682;2023-09-30T11:53:14;9.88;;;4.63;;
70929;SDS011;58588;48.102;19.682;2023-09-30T11:56:17;9.03;;;4.57;;
70929;SDS011;58588;48.102;19.682;2023-09-30T11:59:19;12.65;;;4.65;;
70929;SDS011;58588;48.102;19.682;2023-09-30T12:02:27;10.25;;;4.97;;
70929;SDS011;58588;48.102;19.682;2023-09-30T12:05:35;9.32;;;4.60;;
70929;SDS011;58588;48.102;19.682;2023-09-30T12:08:38;10.00;;;4.90;;
70929;SDS011;58588;48.102;19.682;2023-09-30T12:11:40;13.70;;;5.17;;
70929;SDS011;58588;48.102;19.682;2023-09-30T12:14:44;14.13;;;5.43;;
70929;SDS011;58588;48.102;19.682;2023-09-30T12:17:46;15.02;;;4.88;;
70929;SDS011;58588;48.102;19.682;2023-09-30T12:20:49;11.32;;;5.13;;
70929;SDS011;58588;48.102;19.682;2023-09-30T12:23:52;10.23;;;5.22;;
70929;SDS011;58588;48.102;19.682;2023-09-30T12:26:54;11.00;;;5.00;;
70929;SDS011;58588;48.102;19.682;2023-09-30T12:29:56;10.55;;;4.97;;
70929;SDS011;58588;48.102;19.682;2023-09-30T12:32:58;11.68;;;5.45;;
70929;SDS011;58588;48.102;19.682;2023-09-30T12:36:01;9.15;;;5.22;;
70929;SDS011;58588;48.102;19.682;2023-09-30T12:39:03;10.50;;;5.38;;
70929;SDS011;58588;48.102;19.682;2023-09-30T12:42:11;13.43;;;5.83;;
70929;SDS011;58588;48.102;19.682;2023-09-30T12:45:13;10.68;;;5.13;;
70929;SDS011;58588;48.102;19.682;2023-09-30T12:48:15;11.27;;;4.80;;
70929;SDS011;58588;48.102;19.682;2023-09-30T12:51:19;11.70;;;5.20;;
70929;SDS011;58588;48.102;19.682;2023-09-30T12:54:20;9.82;;;5.28;;
70929;SDS011;58588;48.102;19.682;2023-09-30T12:57:23;10.37;;;5.07;;
70929;SDS011;58588;48.102;19.682;2023-09-30T13:00:26;12.05;;;5.35;;
70929;SDS011;58588;48.102;19.682;2023-09-30T13:03:30;9.50;;;5.25;;
70929;SDS011;58588;48.102;19.682;2023-09-30T13:06:34;8.38;;;5.05;;
70929;SDS011;58588;48.102;19.682;2023-09-30T13:09:36;9.65;;;4.93;;
70929;SDS011;58588;48.102;19.682;2023-09-30T13:12:38;10.20;;;4.73;;
70929;SDS011;58588;48.102;19.682;2023-09-30T13:15:40;10.70;;;5.15;;
70929;SDS011;58588;48.102;19.682;2023-09-30T13:18:42;13.15;;;4.97;;
70929;SDS011;58588;48.102;19.682;2023-09-30T13:21:45;9.05;;;4.55;;
70929;SDS011;58588;48.102;19.682;2023-09-30T13:24:47;10.07;;;5.05;;
70929;SDS011;58588;48.102;19.682;2023-09-30T13:27:49;9.87;;;4.73;;
70929;SDS011;58588;48.102;19.682;2023-09-30T13:30:51;9.38;;;5.57;;
70929;SDS011;58588;48.102;19.682;2023-09-30T13:33:53;11.30;;;5.57;;
70929;SDS011;58588;48.102;19.682;2023-09-30T13:36:56;9.80;;;5.95;;
70929;SDS011;58588;48.102;19.682;2023-09-30T13:39:59;9.93;;;5.47;;
70929;SDS011;58588;48.102;19.682;2023-09-30T13:43:03;13.17;;;5.40;;
70929;SDS011;58588;48.102;19.682;2023-09-30T13:46:05;8.73;;;5.20;;
70929;SDS011;58588;48.102;19.682;2023-09-30T13:49:07;10.05;;;5.50;;
70929;SDS011;58588;48.102;19.682;2023-09-30T13:52:11;12.15;;;5.18;;
70929;SDS011;58588;48.102;19.682;2023-09-30T13:55:13;11.88;;;5.35;;
70929;SDS011;58588;48.102;19.682;2023-09-30T13:58:18;12.23;;;5.27;;
70929;SDS011;58588;48.102;19.682;2023-09-30T14:01:20;10.70;;;5.65;;
70929;SDS011;58588;48.102;19.682;2023-09-30T14:04:22;11.40;;;5.55;;
70929;SDS011;58588;48.102;19.682;2023-09-30T14:07:25;9.65;;;5.47;;
70929;SDS011;58588;48.102;19.682;2023-09-30T14:10:28;11.90;;;5.47;;
70929;SDS011;58588;48.102;19.682;2023-09-30T14:13:30;15.00;;;5.90;;
70929;SDS011;58588;48.102;19.682;2023-09-30T14:16:32;10.75;;;5.65;;
70929;SDS011;58588;48.102;19.682;2023-09-30T14:19:34;9.75;;;5.55;;
70929;SDS011;58588;48.102;19.682;2023-09-30T14:22:37;10.95;;;5.85;;
70929;SDS011;58588;48.102;19.682;2023-09-30T14:25:39;9.38;;;5.53;;
70929;SDS011;58588;48.102;19.682;2023-09-30T14:28:41;11.43;;;5.60;;
70929;SDS011;58588;48.102;19.682;2023-09-30T14:31:45;12.43;;;5.30;;
70929;SDS011;58588;48.102;19.682;2023-09-30T14:34:47;12.93;;;6.43;;
70929;SDS011;58588;48.102;19.682;2023-09-30T14:37:50;14.27;;;6.20;;
70929;SDS011;58588;48.102;19.682;2023-09-30T14:40:54;11.57;;;6.40;;
70929;SDS011;58588;48.102;19.682;2023-09-30T14:43:56;10.40;;;6.10;;
70929;SDS011;58588;48.102;19.682;2023-09-30T14:46:58;11.00;;;5.90;;
70929;SDS011;58588;48.102;19.682;2023-09-30T14:50:00;11.05;;;5.80;;
70929;SDS011;58588;48.102;19.682;2023-09-30T14:53:04;12.02;;;6.18;;
70929;SDS011;58588;48.102;19.682;2023-09-30T14:56:14;9.90;;;5.80;;
70929;SDS011;58588;48.102;19.682;2023-09-30T14:59:17;14.30;;;5.80;;
70929;SDS011;58588;48.102;19.682;2023-09-30T15:02:18;12.30;;;6.07;;
70929;SDS011;58588;48.102;19.682;2023-09-30T15:05:21;13.77;;;6.22;;
70929;SDS011;58588;48.102;19.682;2023-09-30T15:08:25;16.23;;;6.38;;
70929;SDS011;58588;48.102;19.682;2023-09-30T15:11:26;9.75;;;5.50;;
70929;SDS011;58588;48.102;19.682;2023-09-30T15:14:29;12.13;;;5.77;;
70929;SDS011;58588;48.102;19.682;2023-09-30T15:17:30;15.10;;;5.93;;
70929;SDS011;58588;48.102;19.682;2023-09-30T15:23:41;10.40;;;6.15;;
70929;SDS011;58588;48.102;19.682;2023-09-30T15:26:43;11.45;;;5.82;;
70929;SDS011;58588;48.102;19.682;2023-09-30T15:29:45;10.60;;;5.70;;
70929;SDS011;58588;48.102;19.682;2023-09-30T15:32:48;10.90;;;5.45;;
70929;SDS011;58588;48.102;19.682;2023-09-30T15:35:50;11.25;;;6.30;;
70929;SDS011;58588;48.102;19.682;2023-09-30T15:38:54;10.13;;;5.95;;
70929;SDS011;58588;48.102;19.682;2023-09-30T15:41:56;13.98;;;6.00;;
70929;SDS011;58588;48.102;19.682;2023-09-30T15:44:58;16.13;;;7.27;;
70929;SDS011;58588;48.102;19.682;2023-09-30T15:48:00;13.93;;;6.32;;
70929;SDS011;58588;48.102;19.682;2023-09-30T15:51:02;19.85;;;7.88;;
70929;SDS011;58588;48.102;19.682;2023-09-30T15:54:05;14.55;;;8.30;;
70929;SDS011;58588;48.102;19.682;2023-09-30T15:57:07;17.63;;;7.85;;
70929;SDS011;58588;48.102;19.682;2023-09-30T16:00:13;14.63;;;7.27;;
70929;SDS011;58588;48.102;19.682;2023-09-30T16:03:15;13.90;;;6.90;;
70929;SDS011;58588;48.102;19.682;2023-09-30T16:06:17;14.85;;;7.55;;
70929;SDS011;58588;48.102;19.682;2023-09-30T16:09:20;16.95;;;7.57;;
70929;SDS011;58588;48.102;19.682;2023-09-30T16:12:22;13.60;;;6.72;;
70929;SDS011;58588;48.102;19.682;2023-09-30T16:15:24;14.13;;;7.00;;
70929;SDS011;58588;48.102;19.682;2023-09-30T16:18:27;15.77;;;7.43;;
70929;SDS011;58588;48.102;19.682;2023-09-30T16:21:29;17.10;;;8.30;;
70929;SDS011;58588;48.102;19.682;2023-09-30T16:24:32;30.73;;;10.23;;
70929;SDS011;58588;48.102;19.682;2023-09-30T16:27:34;27.52;;;12.63;;
70929;SDS011;58588;48.102;19.682;2023-09-30T16:30:36;20.40;;;11.53;;
70929;SDS011;58588;48.102;19.682;2023-09-30T16:33:38;19.23;;;10.18;;
70929;SDS011;58588;48.102;19.682;2023-09-30T16:36:39;29.23;;;14.50;;
70929;SDS011;58588;48.102;19.682;2023-09-30T16:39:43;22.52;;;11.05;;
70929;SDS011;58588;48.102;19.682;2023-09-30T16:42:45;26.85;;;11.40;;
70929;SDS011;58588;48.102;19.682;2023-09-30T16:45:46;34.63;;;14.17;;
70929;SDS011;58588;48.102;19.682;2023-09-30T16:48:49;24.48;;;11.63;;
70929;SDS011;58588;48.102;19.682;2023-09-30T16:51:51;18.85;;;9.32;;
70929;SDS011;58588;48.102;19.682;2023-09-30T16:54:54;17.42;;;8.60;;
70929;SDS011;58588;48.102;19.682;2023-09-30T16:57:56;16.58;;;9.05;;
70929;SDS011;58588;48.102;19.682;2023-09-30T17:00:58;19.50;;;9.23;;
70929;SDS011;58588;48.102;19.682;2023-09-30T17:04:00;20.70;;;9.85;;
70929;SDS011;58588;48.102;19.682;2023-09-30T17:07:02;19.48;;;9.27;;
70929;SDS011;58588;48.102;19.682;2023-09-30T17:10:06;20.95;;;10.45;;
70929;SDS011;58588;48.102;19.682;2023-09-30T17:13:09;19.75;;;10.55;;
70929;SDS011;58588;48.102;19.682;2023-09-30T17:16:16;21.00;;;9.90;;
70929;SDS011;58588;48.102;19.682;2023-09-30T17:19:18;18.85;;;11.82;;
70929;SDS011;58588;48.102;19.682;2023-09-30T17:22:21;21.15;;;13.88;;
70929;SDS011;58588;48.102;19.682;2023-09-30T17:25:24;19.50;;;12.57;;
70929;SDS011;58588;48.102;19.682;2023-09-30T17:28:28;18.08;;;11.60;;
70929;SDS011;58588;48.102;19.682;2023-09-30T17:31:30;17.70;;;11.37;;
70929;SDS011;58588;48.102;19.682;2023-09-30T17:34:32;18.60;;;11.30;;
70929;SDS011;58588;48.102;19.682;2023-09-30T17:37:37;17.35;;;9.93;;
70929;SDS011;58588;48.102;19.682;2023-09-30T17:40:40;22.08;;;10.40;;
70929;SDS011;58588;48.102;19.682;2023-09-30T17:43:43;17.90;;;10.35;;
70929;SDS011;58588;48.102;19.682;2023-09-30T17:46:44;17.93;;;11.47;;
70929;SDS011;58588;48.102;19.682;2023-09-30T17:49:47;23.50;;;12.05;;
70929;SDS011;58588;48.102;19.682;2023-09-30T17:52:49;22.15;;;12.50;;
70929;SDS011;58588;48.102;19.682;2023-09-30T17:55:53;22.83;;;12.63;;
70929;SDS011;58588;48.102;19.682;2023-09-30T17:58:55;21.17;;;12.68;;
70929;SDS011;58588;48.102;19.682;2023-09-30T18:01:57;21.17;;;11.83;;
70929;SDS011;58588;48.102;19.682;2023-09-30T18:04:59;22.98;;;13.50;;